Aérodrome :
LOGIN :

S'inscrire | Disclaimer

   EN    FR    IT 

 










Légende :    VFR   VFR Marginal   IFR   IFR Intensif   IFR Très Intensif
Visi : 
Plafond : 
>= 8 km
>= 3000ft
5 à 8 km
1000 à 3000 ft
1500m à 5 km
500 à 1000 ft
800 à 1500m
200 à 500 ft
< 800m
< 200 ft
Symboles :   Orages  Brouillard  Fortes neiges  Fortes précipitations  Vent > 20 kt
SIGMETs :   Divers  Orages  Givrage  Turbulence  Onde Orograph.  Cendres Volcan.






- Altitude de l'aérodrome : 1300 ft
- Code IATA : LIG


LFBL - Limoges

DERNIER METAR :
  • 190700Z AUTO 18010KT 9999 OVC005 12/12 Q1007 NOSIG

METARs EXPIRÉS :
  • 190630Z AUTO 18007KT 9999 OVC004 12/12 Q1007 BECMG OVC006
  • 190600Z AUTO 18008KT 9999 OVC005 12/11 Q1007 NOSIG
  • 190530Z AUTO 17006KT 9999 OVC005 12/11 Q1007 NOSIG
  • 190500Z AUTO 19007KT 9999 OVC005 12/12 Q1008 NOSIG
  • 190430Z AUTO 18007KT 9999 OVC005 12/11 Q1008 NOSIG

TAF TAF LFBL
Valide du 19 à 06h jusqu'au 20 à 06h UTC


190500Z 1906/2006 19010KT 9999 OVC006
BECMG 1909/1911 BKN020
PROB40
TEMPO 1911/1915 VRB15KT SHRA BKN030TCU
BECMG 1914/1916 VRB03KT SCT040
BECMG 1916/1918 BKN006
BECMG 1920/1922 3000 RA OVC003
ATIS : +33 5 55 48 40 37



MET'MAP, la Météo Aéronautique d'un coup d'oeil ! - Copyright ORBIFLY Décembre 2007 - Disclaimer

ORBIFLY MET'MAP TEAM :

Programmation & Développement : Alexandra Zaïnal
Conception & Développement : Baudouin d'Aumeries
Co-Programmation & Développement : Marc-Olivier Méhu
Soutien technique & logistique : Manuel Goepfert

Contact : metmap@orbifly.com




SOURCES & CREDITS :

   NOAA